sensor_id;sensor_type;location;lat;lon;timestamp;P1;durP1;ratioP1;P2;durP2;ratioP2
19225;SDS011;9747;48.536;12.522;2022-09-09T00:01:15;0.70;;;0.70;;
19225;SDS011;9747;48.536;12.522;2022-09-09T00:03:57;0.73;;;0.73;;
19225;SDS011;9747;48.536;12.522;2022-09-09T00:06:30;0.70;;;0.70;;
19225;SDS011;9747;48.536;12.522;2022-09-09T00:09:01;0.70;;;0.70;;
19225;SDS011;9747;48.536;12.522;2022-09-09T00:11:36;0.57;;;0.57;;
19225;SDS011;9747;48.536;12.522;2022-09-09T00:14:12;0.60;;;0.60;;
19225;SDS011;9747;48.536;12.522;2022-09-09T00:16:47;0.80;;;0.80;;
19225;SDS011;9747;48.536;12.522;2022-09-09T00:19:20;0.60;;;0.60;;
19225;SDS011;9747;48.536;12.522;2022-09-09T00:21:53;0.70;;;0.70;;
19225;SDS011;9747;48.536;12.522;2022-09-09T00:24:32;0.70;;;0.70;;
19225;SDS011;9747;48.536;12.522;2022-09-09T00:27:04;1.75;;;0.80;;
19225;SDS011;9747;48.536;12.522;2022-09-09T00:29:36;1.75;;;0.85;;
19225;SDS011;9747;48.536;12.522;2022-09-09T00:32:13;0.60;;;0.60;;
19225;SDS011;9747;48.536;12.522;2022-09-09T00:34:47;0.70;;;0.70;;
19225;SDS011;9747;48.536;12.522;2022-09-09T00:37:16;0.85;;;0.70;;
19225;SDS011;9747;48.536;12.522;2022-09-09T00:39:45;1.38;;;0.80;;
19225;SDS011;9747;48.536;12.522;2022-09-09T00:42:16;0.80;;;0.80;;
19225;SDS011;9747;48.536;12.522;2022-09-09T00:44:50;0.70;;;0.70;;
19225;SDS011;9747;48.536;12.522;2022-09-09T00:50:31;0.60;;;0.60;;
19225;SDS011;9747;48.536;12.522;2022-09-09T00:53:13;0.80;;;0.80;;
19225;SDS011;9747;48.536;12.522;2022-09-09T00:55:58;0.60;;;0.60;;
19225;SDS011;9747;48.536;12.522;2022-09-09T00:58:34;0.70;;;0.70;;
19225;SDS011;9747;48.536;12.522;2022-09-09T01:01:03;1.45;;;0.70;;
19225;SDS011;9747;48.536;12.522;2022-09-09T01:03:36;0.93;;;0.82;;
19225;SDS011;9747;48.536;12.522;2022-09-09T01:06:12;0.73;;;0.73;;
19225;SDS011;9747;48.536;12.522;2022-09-09T01:08:46;1.00;;;0.80;;
19225;SDS011;9747;48.536;12.522;2022-09-09T01:11:26;0.73;;;0.70;;
19225;SDS011;9747;48.536;12.522;2022-09-09T01:14:00;0.60;;;0.60;;
19225;SDS011;9747;48.536;12.522;2022-09-09T01:16:37;1.05;;;0.68;;
19225;SDS011;9747;48.536;12.522;2022-09-09T01:19:07;0.70;;;0.70;;
19225;SDS011;9747;48.536;12.522;2022-09-09T01:21:42;0.70;;;0.70;;
19225;SDS011;9747;48.536;12.522;2022-09-09T01:24:20;0.80;;;0.80;;
19225;SDS011;9747;48.536;12.522;2022-09-09T01:27:01;0.60;;;0.60;;
19225;SDS011;9747;48.536;12.522;2022-09-09T01:29:29;0.70;;;0.70;;
19225;SDS011;9747;48.536;12.522;2022-09-09T01:31:59;0.73;;;0.73;;
19225;SDS011;9747;48.536;12.522;2022-09-09T01:34:30;0.70;;;0.70;;
19225;SDS011;9747;48.536;12.522;2022-09-09T01:37:01;0.90;;;0.90;;
19225;SDS011;9747;48.536;12.522;2022-09-09T01:39:31;0.80;;;0.80;;
19225;SDS011;9747;48.536;12.522;2022-09-09T01:42:03;1.02;;;0.80;;
19225;SDS011;9747;48.536;12.522;2022-09-09T01:44:33;0.70;;;0.70;;
19225;SDS011;9747;48.536;12.522;2022-09-09T01:47:01;0.60;;;0.60;;
19225;SDS011;9747;48.536;12.522;2022-09-09T01:49:29;1.13;;;0.80;;
19225;SDS011;9747;48.536;12.522;2022-09-09T01:52:01;0.70;;;0.70;;
19225;SDS011;9747;48.536;12.522;2022-09-09T01:54:33;0.70;;;0.70;;
19225;SDS011;9747;48.536;12.522;2022-09-09T01:57:11;0.70;;;0.70;;
19225;SDS011;9747;48.536;12.522;2022-09-09T01:59:48;0.70;;;0.70;;
19225;SDS011;9747;48.536;12.522;2022-09-09T02:02:26;0.88;;;0.88;;
19225;SDS011;9747;48.536;12.522;2022-09-09T02:05:11;0.75;;;0.75;;
19225;SDS011;9747;48.536;12.522;2022-09-09T02:07:48;0.70;;;0.70;;
19225;SDS011;9747;48.536;12.522;2022-09-09T02:10:30;0.85;;;0.80;;
19225;SDS011;9747;48.536;12.522;2022-09-09T02:13:16;1.15;;;0.60;;
19225;SDS011;9747;48.536;12.522;2022-09-09T02:15:47;0.50;;;0.50;;
19225;SDS011;9747;48.536;12.522;2022-09-09T02:18:21;0.70;;;0.70;;
19225;SDS011;9747;48.536;12.522;2022-09-09T02:20:53;0.60;;;0.60;;
19225;SDS011;9747;48.536;12.522;2022-09-09T02:23:21;0.70;;;0.70;;
19225;SDS011;9747;48.536;12.522;2022-09-09T02:25:52;0.70;;;0.70;;
19225;SDS011;9747;48.536;12.522;2022-09-09T02:28:24;0.73;;;0.73;;
19225;SDS011;9747;48.536;12.522;2022-09-09T02:30:54;0.70;;;0.70;;
19225;SDS011;9747;48.536;12.522;2022-09-09T02:33:30;0.80;;;0.80;;
19225;SDS011;9747;48.536;12.522;2022-09-09T02:36:04;0.70;;;0.70;;
19225;SDS011;9747;48.536;12.522;2022-09-09T02:38:35;0.60;;;0.60;;
19225;SDS011;9747;48.536;12.522;2022-09-09T02:41:08;1.33;;;0.65;;
19225;SDS011;9747;48.536;12.522;2022-09-09T02:43:38;1.48;;;0.75;;
19225;SDS011;9747;48.536;12.522;2022-09-09T02:46:14;1.05;;;0.70;;
19225;SDS011;9747;48.536;12.522;2022-09-09T02:48:59;0.63;;;0.63;;
19225;SDS011;9747;48.536;12.522;2022-09-09T02:51:35;0.70;;;0.70;;
19225;SDS011;9747;48.536;12.522;2022-09-09T02:54:13;0.50;;;0.50;;
19225;SDS011;9747;48.536;12.522;2022-09-09T02:56:49;0.60;;;0.60;;
19225;SDS011;9747;48.536;12.522;2022-09-09T02:59:30;0.80;;;0.80;;
19225;SDS011;9747;48.536;12.522;2022-09-09T03:01:58;0.70;;;0.70;;
19225;SDS011;9747;48.536;12.522;2022-09-09T03:04:26;0.95;;;0.70;;
19225;SDS011;9747;48.536;12.522;2022-09-09T03:06:56;0.68;;;0.68;;
19225;SDS011;9747;48.536;12.522;2022-09-09T03:09:24;1.13;;;0.90;;
19225;SDS011;9747;48.536;12.522;2022-09-09T03:11:55;0.60;;;0.60;;
19225;SDS011;9747;48.536;12.522;2022-09-09T03:14:22;0.70;;;0.70;;
19225;SDS011;9747;48.536;12.522;2022-09-09T03:16:52;0.60;;;0.60;;
19225;SDS011;9747;48.536;12.522;2022-09-09T03:19:22;0.90;;;0.80;;
19225;SDS011;9747;48.536;12.522;2022-09-09T03:21:50;0.63;;;0.63;;
19225;SDS011;9747;48.536;12.522;2022-09-09T03:24:17;0.68;;;0.68;;
19225;SDS011;9747;48.536;12.522;2022-09-09T03:26:45;0.88;;;0.60;;
19225;SDS011;9747;48.536;12.522;2022-09-09T03:29:15;0.80;;;0.80;;
19225;SDS011;9747;48.536;12.522;2022-09-09T03:31:44;1.15;;;0.68;;
19225;SDS011;9747;48.536;12.522;2022-09-09T03:34:14;0.80;;;0.80;;
19225;SDS011;9747;48.536;12.522;2022-09-09T03:36:41;0.70;;;0.70;;
19225;SDS011;9747;48.536;12.522;2022-09-09T03:39:09;0.60;;;0.60;;
19225;SDS011;9747;48.536;12.522;2022-09-09T03:41:38;0.70;;;0.70;;
19225;SDS011;9747;48.536;12.522;2022-09-09T03:44:06;0.65;;;0.65;;
19225;SDS011;9747;48.536;12.522;2022-09-09T03:46:37;0.70;;;0.70;;
19225;SDS011;9747;48.536;12.522;2022-09-09T03:49:05;0.75;;;0.75;;
19225;SDS011;9747;48.536;12.522;2022-09-09T03:51:34;0.60;;;0.60;;
19225;SDS011;9747;48.536;12.522;2022-09-09T03:54:02;0.70;;;0.60;;
19225;SDS011;9747;48.536;12.522;2022-09-09T03:56:30;0.55;;;0.55;;
19225;SDS011;9747;48.536;12.522;2022-09-09T03:58:58;0.60;;;0.60;;
19225;SDS011;9747;48.536;12.522;2022-09-09T04:01:26;0.68;;;0.68;;
19225;SDS011;9747;48.536;12.522;2022-09-09T04:03:54;1.25;;;0.82;;
19225;SDS011;9747;48.536;12.522;2022-09-09T04:06:23;0.65;;;0.65;;
19225;SDS011;9747;48.536;12.522;2022-09-09T04:08:53;0.93;;;0.88;;
19225;SDS011;9747;48.536;12.522;2022-09-09T04:11:20;2.42;;;0.98;;
19225;SDS011;9747;48.536;12.522;2022-09-09T04:13:51;2.17;;;0.90;;
19225;SDS011;9747;48.536;12.522;2022-09-09T04:16:18;2.83;;;1.10;;
19225;SDS011;9747;48.536;12.522;2022-09-09T04:18:46;2.50;;;0.95;;
19225;SDS011;9747;48.536;12.522;2022-09-09T04:21:15;2.30;;;0.90;;
19225;SDS011;9747;48.536;12.522;2022-09-09T04:23:42;1.23;;;1.10;;
19225;SDS011;9747;48.536;12.522;2022-09-09T04:26:11;3.00;;;1.17;;
19225;SDS011;9747;48.536;12.522;2022-09-09T04:28:39;1.95;;;1.00;;
19225;SDS011;9747;48.536;12.522;2022-09-09T04:31:14;3.22;;;1.10;;
19225;SDS011;9747;48.536;12.522;2022-09-09T04:33:46;1.40;;;1.00;;
19225;SDS011;9747;48.536;12.522;2022-09-09T04:36:15;2.22;;;0.98;;
19225;SDS011;9747;48.536;12.522;2022-09-09T04:38:43;1.75;;;1.00;;
19225;SDS011;9747;48.536;12.522;2022-09-09T04:41:12;1.15;;;1.05;;
19225;SDS011;9747;48.536;12.522;2022-09-09T04:43:42;2.80;;;1.00;;
19225;SDS011;9747;48.536;12.522;2022-09-09T04:46:12;0.80;;;0.80;;
19225;SDS011;9747;48.536;12.522;2022-09-09T04:48:42;1.20;;;1.00;;
19225;SDS011;9747;48.536;12.522;2022-09-09T04:51:11;1.10;;;1.00;;
19225;SDS011;9747;48.536;12.522;2022-09-09T04:53:42;1.50;;;0.90;;
19225;SDS011;9747;48.536;12.522;2022-09-09T04:56:14;1.52;;;0.80;;
19225;SDS011;9747;48.536;12.522;2022-09-09T04:58:49;0.80;;;0.80;;
19225;SDS011;9747;48.536;12.522;2022-09-09T05:01:17;0.88;;;0.88;;
19225;SDS011;9747;48.536;12.522;2022-09-09T05:03:48;0.90;;;0.90;;
19225;SDS011;9747;48.536;12.522;2022-09-09T05:06:20;2.05;;;0.98;;
19225;SDS011;9747;48.536;12.522;2022-09-09T05:08:53;1.52;;;0.88;;
19225;SDS011;9747;48.536;12.522;2022-09-09T05:11:28;1.33;;;0.80;;
19225;SDS011;9747;48.536;12.522;2022-09-09T05:14:17;1.33;;;1.00;;
19225;SDS011;9747;48.536;12.522;2022-09-09T05:16:45;2.45;;;1.10;;
19225;SDS011;9747;48.536;12.522;2022-09-09T05:19:13;1.42;;;1.00;;
19225;SDS011;9747;48.536;12.522;2022-09-09T05:21:46;1.52;;;0.88;;
19225;SDS011;9747;48.536;12.522;2022-09-09T05:24:17;0.75;;;0.75;;
19225;SDS011;9747;48.536;12.522;2022-09-09T05:26:47;1.38;;;0.90;;
19225;SDS011;9747;48.536;12.522;2022-09-09T05:29:15;1.63;;;1.00;;
19225;SDS011;9747;48.536;12.522;2022-09-09T05:31:44;1.83;;;1.17;;
19225;SDS011;9747;48.536;12.522;2022-09-09T05:34:16;2.00;;;1.00;;
19225;SDS011;9747;48.536;12.522;2022-09-09T05:36:45;1.17;;;0.90;;
19225;SDS011;9747;48.536;12.522;2022-09-09T05:39:13;0.90;;;0.80;;
19225;SDS011;9747;48.536;12.522;2022-09-09T05:41:40;0.77;;;0.77;;
19225;SDS011;9747;48.536;12.522;2022-09-09T05:44:09;0.80;;;0.80;;
19225;SDS011;9747;48.536;12.522;2022-09-09T05:46:38;1.30;;;0.70;;
19225;SDS011;9747;48.536;12.522;2022-09-09T05:49:06;1.40;;;0.85;;
19225;SDS011;9747;48.536;12.522;2022-09-09T05:51:34;1.25;;;0.95;;
19225;SDS011;9747;48.536;12.522;2022-09-09T05:54:06;1.00;;;1.00;;
19225;SDS011;9747;48.536;12.522;2022-09-09T05:56:38;0.90;;;0.90;;
19225;SDS011;9747;48.536;12.522;2022-09-09T05:59:07;0.95;;;0.95;;
19225;SDS011;9747;48.536;12.522;2022-09-09T06:01:38;0.90;;;0.90;;
19225;SDS011;9747;48.536;12.522;2022-09-09T06:04:08;1.45;;;0.95;;
19225;SDS011;9747;48.536;12.522;2022-09-09T06:06:37;0.73;;;0.73;;
19225;SDS011;9747;48.536;12.522;2022-09-09T06:09:11;0.95;;;0.95;;
19225;SDS011;9747;48.536;12.522;2022-09-09T06:11:41;1.17;;;0.90;;
19225;SDS011;9747;48.536;12.522;2022-09-09T06:14:12;1.02;;;1.00;;
19225;SDS011;9747;48.536;12.522;2022-09-09T06:16:40;1.17;;;1.00;;
19225;SDS011;9747;48.536;12.522;2022-09-09T06:19:19;0.90;;;0.90;;
19225;SDS011;9747;48.536;12.522;2022-09-09T06:21:47;2.28;;;0.90;;
19225;SDS011;9747;48.536;12.522;2022-09-09T06:24:15;1.27;;;1.00;;
19225;SDS011;9747;48.536;12.522;2022-09-09T06:26:44;1.30;;;1.10;;
19225;SDS011;9747;48.536;12.522;2022-09-09T06:29:19;0.80;;;0.80;;
19225;SDS011;9747;48.536;12.522;2022-09-09T06:31:47;1.63;;;0.88;;
19225;SDS011;9747;48.536;12.522;2022-09-09T06:34:19;2.35;;;0.77;;
19225;SDS011;9747;48.536;12.522;2022-09-09T06:36:50;1.27;;;0.95;;
19225;SDS011;9747;48.536;12.522;2022-09-09T06:39:17;0.90;;;0.88;;
19225;SDS011;9747;48.536;12.522;2022-09-09T06:41:45;1.90;;;0.98;;
19225;SDS011;9747;48.536;12.522;2022-09-09T06:44:33;0.82;;;0.82;;
19225;SDS011;9747;48.536;12.522;2022-09-09T06:47:04;1.75;;;0.93;;
19225;SDS011;9747;48.536;12.522;2022-09-09T06:49:32;2.85;;;1.10;;
19225;SDS011;9747;48.536;12.522;2022-09-09T06:52:03;0.95;;;0.95;;
19225;SDS011;9747;48.536;12.522;2022-09-09T06:54:30;0.95;;;0.95;;
19225;SDS011;9747;48.536;12.522;2022-09-09T06:56:58;1.95;;;0.98;;
19225;SDS011;9747;48.536;12.522;2022-09-09T06:59:26;1.02;;;1.02;;
19225;SDS011;9747;48.536;12.522;2022-09-09T07:01:55;1.55;;;0.88;;
19225;SDS011;9747;48.536;12.522;2022-09-09T07:04:23;1.40;;;1.25;;
19225;SDS011;9747;48.536;12.522;2022-09-09T07:06:51;1.00;;;0.90;;
19225;SDS011;9747;48.536;12.522;2022-09-09T07:09:22;2.67;;;0.90;;
19225;SDS011;9747;48.536;12.522;2022-09-09T07:11:51;1.77;;;1.10;;
19225;SDS011;9747;48.536;12.522;2022-09-09T07:14:20;1.20;;;1.10;;
19225;SDS011;9747;48.536;12.522;2022-09-09T07:16:56;1.33;;;1.10;;
19225;SDS011;9747;48.536;12.522;2022-09-09T07:19:23;1.85;;;1.23;;
19225;SDS011;9747;48.536;12.522;2022-09-09T07:21:52;1.40;;;1.30;;
19225;SDS011;9747;48.536;12.522;2022-09-09T07:24:22;1.50;;;1.40;;
19225;SDS011;9747;48.536;12.522;2022-09-09T07:26:50;2.17;;;1.10;;
19225;SDS011;9747;48.536;12.522;2022-09-09T07:29:18;1.38;;;1.10;;
19225;SDS011;9747;48.536;12.522;2022-09-09T07:31:45;1.17;;;1.08;;
19225;SDS011;9747;48.536;12.522;2022-09-09T07:34:19;2.55;;;1.10;;
19225;SDS011;9747;48.536;12.522;2022-09-09T07:36:46;1.42;;;1.33;;
19225;SDS011;9747;48.536;12.522;2022-09-09T07:39:16;1.45;;;1.20;;
19225;SDS011;9747;48.536;12.522;2022-09-09T07:41:48;2.55;;;1.58;;
19225;SDS011;9747;48.536;12.522;2022-09-09T07:44:19;1.23;;;1.13;;
19225;SDS011;9747;48.536;12.522;2022-09-09T07:46:53;1.27;;;1.10;;
19225;SDS011;9747;48.536;12.522;2022-09-09T07:49:27;1.77;;;1.20;;
19225;SDS011;9747;48.536;12.522;2022-09-09T07:51:54;1.08;;;1.08;;
19225;SDS011;9747;48.536;12.522;2022-09-09T07:54:22;2.55;;;1.00;;
19225;SDS011;9747;48.536;12.522;2022-09-09T07:56:50;2.00;;;1.13;;
19225;SDS011;9747;48.536;12.522;2022-09-09T07:59:21;3.30;;;1.30;;
19225;SDS011;9747;48.536;12.522;2022-09-09T08:01:51;2.65;;;1.10;;
19225;SDS011;9747;48.536;12.522;2022-09-09T08:04:22;1.85;;;1.00;;
19225;SDS011;9747;48.536;12.522;2022-09-09T08:06:54;2.60;;;1.10;;
19225;SDS011;9747;48.536;12.522;2022-09-09T08:09:25;2.97;;;1.10;;
19225;SDS011;9747;48.536;12.522;2022-09-09T08:11:58;1.95;;;1.10;;
19225;SDS011;9747;48.536;12.522;2022-09-09T08:14:26;2.63;;;1.05;;
19225;SDS011;9747;48.536;12.522;2022-09-09T08:16:55;0.98;;;0.90;;
19225;SDS011;9747;48.536;12.522;2022-09-09T08:19:25;0.95;;;0.95;;
19225;SDS011;9747;48.536;12.522;2022-09-09T08:21:56;1.25;;;1.10;;
19225;SDS011;9747;48.536;12.522;2022-09-09T08:24:23;0.88;;;0.88;;
19225;SDS011;9747;48.536;12.522;2022-09-09T08:26:51;1.23;;;1.13;;
19225;SDS011;9747;48.536;12.522;2022-09-09T08:29:22;1.20;;;1.10;;
19225;SDS011;9747;48.536;12.522;2022-09-09T08:31:52;1.08;;;1.00;;
19225;SDS011;9747;48.536;12.522;2022-09-09T08:34:22;1.17;;;1.10;;
19225;SDS011;9747;48.536;12.522;2022-09-09T08:36:52;5.88;;;1.35;;
19225;SDS011;9747;48.536;12.522;2022-09-09T08:39:28;3.90;;;1.30;;
19225;SDS011;9747;48.536;12.522;2022-09-09T08:41:59;1.95;;;0.93;;
19225;SDS011;9747;48.536;12.522;2022-09-09T08:45:09;1.35;;;1.00;;
19225;SDS011;9747;48.536;12.522;2022-09-09T08:48:00;4.47;;;1.27;;
19225;SDS011;9747;48.536;12.522;2022-09-09T08:50:36;1.33;;;1.23;;
19225;SDS011;9747;48.536;12.522;2022-09-09T08:53:13;2.05;;;1.10;;
19225;SDS011;9747;48.536;12.522;2022-09-09T08:55:47;1.27;;;1.02;;
19225;SDS011;9747;48.536;12.522;2022-09-09T08:58:20;1.83;;;1.00;;
19225;SDS011;9747;48.536;12.522;2022-09-09T09:01:05;1.42;;;1.10;;
19225;SDS011;9747;48.536;12.522;2022-09-09T09:03:51;1.90;;;1.27;;
19225;SDS011;9747;48.536;12.522;2022-09-09T09:06:26;1.52;;;1.13;;
19225;SDS011;9747;48.536;12.522;2022-09-09T09:09:08;3.10;;;1.20;;
19225;SDS011;9747;48.536;12.522;2022-09-09T09:11:44;1.00;;;0.90;;
19225;SDS011;9747;48.536;12.522;2022-09-09T09:14:15;1.77;;;1.10;;
19225;SDS011;9747;48.536;12.522;2022-09-09T09:16:49;1.20;;;1.08;;
19225;SDS011;9747;48.536;12.522;2022-09-09T09:19:23;0.98;;;0.98;;
19225;SDS011;9747;48.536;12.522;2022-09-09T09:21:54;1.30;;;0.98;;
19225;SDS011;9747;48.536;12.522;2022-09-09T09:24:27;1.08;;;1.08;;
19225;SDS011;9747;48.536;12.522;2022-09-09T09:27:07;1.17;;;1.10;;
19225;SDS011;9747;48.536;12.522;2022-09-09T09:29:45;1.27;;;1.10;;
19225;SDS011;9747;48.536;12.522;2022-09-09T09:32:16;0.80;;;0.80;;
19225;SDS011;9747;48.536;12.522;2022-09-09T09:34:48;0.90;;;0.88;;
19225;SDS011;9747;48.536;12.522;2022-09-09T09:37:20;0.90;;;0.90;;
19225;SDS011;9747;48.536;12.522;2022-09-09T09:39:55;1.75;;;1.02;;
19225;SDS011;9747;48.536;12.522;2022-09-09T09:42:35;2.20;;;1.38;;
19225;SDS011;9747;48.536;12.522;2022-09-09T09:45:08;0.88;;;0.88;;
19225;SDS011;9747;48.536;12.522;2022-09-09T09:47:43;1.02;;;1.02;;
19225;SDS011;9747;48.536;12.522;2022-09-09T09:50:16;0.70;;;0.70;;
19225;SDS011;9747;48.536;12.522;2022-09-09T09:52:53;1.23;;;1.10;;
19225;SDS011;9747;48.536;12.522;2022-09-09T09:55:22;1.02;;;1.00;;
19225;SDS011;9747;48.536;12.522;2022-09-09T09:57:52;1.10;;;1.00;;
19225;SDS011;9747;48.536;12.522;2022-09-09T10:00:20;1.35;;;0.90;;
19225;SDS011;9747;48.536;12.522;2022-09-09T10:02:58;1.20;;;1.13;;
19225;SDS011;9747;48.536;12.522;2022-09-09T10:05:30;1.13;;;0.93;;
19225;SDS011;9747;48.536;12.522;2022-09-09T10:08:04;0.90;;;0.90;;
19225;SDS011;9747;48.536;12.522;2022-09-09T10:10:39;1.02;;;1.00;;
19225;SDS011;9747;48.536;12.522;2022-09-09T10:13:18;1.13;;;1.00;;
19225;SDS011;9747;48.536;12.522;2022-09-09T10:15:53;1.15;;;0.80;;
19225;SDS011;9747;48.536;12.522;2022-09-09T10:18:36;0.90;;;0.90;;
19225;SDS011;9747;48.536;12.522;2022-09-09T10:21:20;2.20;;;0.90;;
19225;SDS011;9747;48.536;12.522;2022-09-09T10:24:04;0.80;;;0.80;;
19225;SDS011;9747;48.536;12.522;2022-09-09T10:26:58;0.90;;;0.90;;
19225;SDS011;9747;48.536;12.522;2022-09-09T10:29:47;2.05;;;0.98;;
19225;SDS011;9747;48.536;12.522;2022-09-09T10:32:37;0.80;;;0.80;;
19225;SDS011;9747;48.536;12.522;2022-09-09T10:35:12;2.85;;;0.90;;
19225;SDS011;9747;48.536;12.522;2022-09-09T10:37:52;1.27;;;1.17;;
19225;SDS011;9747;48.536;12.522;2022-09-09T10:43:39;0.82;;;0.80;;
19225;SDS011;9747;48.536;12.522;2022-09-09T10:46:37;1.52;;;0.90;;
19225;SDS011;9747;48.536;12.522;2022-09-09T10:49:20;1.63;;;0.95;;
19225;SDS011;9747;48.536;12.522;2022-09-09T10:52:01;1.30;;;0.80;;
19225;SDS011;9747;48.536;12.522;2022-09-09T10:54:36;1.80;;;0.90;;
19225;SDS011;9747;48.536;12.522;2022-09-09T10:57:13;1.20;;;1.00;;
19225;SDS011;9747;48.536;12.522;2022-09-09T10:59:45;1.45;;;0.95;;
19225;SDS011;9747;48.536;12.522;2022-09-09T11:02:21;0.80;;;0.80;;
19225;SDS011;9747;48.536;12.522;2022-09-09T11:04:53;1.23;;;1.10;;
19225;SDS011;9747;48.536;12.522;2022-09-09T11:07:25;1.58;;;0.90;;
19225;SDS011;9747;48.536;12.522;2022-09-09T11:09:58;0.77;;;0.77;;
19225;SDS011;9747;48.536;12.522;2022-09-09T11:12:27;1.20;;;0.90;;
19225;SDS011;9747;48.536;12.522;2022-09-09T11:14:57;0.70;;;0.70;;
19225;SDS011;9747;48.536;12.522;2022-09-09T11:17:30;1.27;;;0.80;;
19225;SDS011;9747;48.536;12.522;2022-09-09T11:20:05;1.25;;;0.90;;
19225;SDS011;9747;48.536;12.522;2022-09-09T11:22:33;0.90;;;0.90;;
19225;SDS011;9747;48.536;12.522;2022-09-09T11:25:04;2.30;;;0.82;;
19225;SDS011;9747;48.536;12.522;2022-09-09T11:27:37;0.95;;;0.90;;
19225;SDS011;9747;48.536;12.522;2022-09-09T11:30:19;1.15;;;0.80;;
19225;SDS011;9747;48.536;12.522;2022-09-09T11:32:56;0.70;;;0.70;;
19225;SDS011;9747;48.536;12.522;2022-09-09T11:35:49;1.75;;;0.93;;
19225;SDS011;9747;48.536;12.522;2022-09-09T11:38:32;1.50;;;1.00;;
19225;SDS011;9747;48.536;12.522;2022-09-09T11:41:07;0.80;;;0.80;;
19225;SDS011;9747;48.536;12.522;2022-09-09T11:43:38;0.80;;;0.80;;
19225;SDS011;9747;48.536;12.522;2022-09-09T11:46:07;1.23;;;0.90;;
19225;SDS011;9747;48.536;12.522;2022-09-09T11:48:36;1.23;;;0.73;;
19225;SDS011;9747;48.536;12.522;2022-09-09T11:51:08;0.90;;;0.90;;
19225;SDS011;9747;48.536;12.522;2022-09-09T11:53:47;1.45;;;0.88;;
19225;SDS011;9747;48.536;12.522;2022-09-09T11:56:26;1.48;;;0.95;;
19225;SDS011;9747;48.536;12.522;2022-09-09T11:59:00;1.48;;;0.90;;
19225;SDS011;9747;48.536;12.522;2022-09-09T12:01:39;1.77;;;0.98;;
19225;SDS011;9747;48.536;12.522;2022-09-09T12:04:14;0.77;;;0.70;;
19225;SDS011;9747;48.536;12.522;2022-09-09T12:06:54;1.23;;;0.85;;
19225;SDS011;9747;48.536;12.522;2022-09-09T12:09:27;3.08;;;0.80;;
19225;SDS011;9747;48.536;12.522;2022-09-09T12:12:07;0.80;;;0.80;;
19225;SDS011;9747;48.536;12.522;2022-09-09T12:14:56;1.23;;;1.00;;
19225;SDS011;9747;48.536;12.522;2022-09-09T12:17:27;1.17;;;0.90;;
19225;SDS011;9747;48.536;12.522;2022-09-09T12:20:11;2.72;;;0.73;;
19225;SDS011;9747;48.536;12.522;2022-09-09T12:22:48;2.15;;;0.93;;
19225;SDS011;9747;48.536;12.522;2022-09-09T12:25:29;0.70;;;0.70;;
19225;SDS011;9747;48.536;12.522;2022-09-09T12:28:05;2.03;;;0.90;;
19225;SDS011;9747;48.536;12.522;2022-09-09T12:30:40;2.13;;;0.90;;
19225;SDS011;9747;48.536;12.522;2022-09-09T12:33:13;2.88;;;1.13;;
19225;SDS011;9747;48.536;12.522;2022-09-09T12:35:47;1.10;;;1.00;;
19225;SDS011;9747;48.536;12.522;2022-09-09T12:38:21;0.80;;;0.80;;
19225;SDS011;9747;48.536;12.522;2022-09-09T12:40:54;1.02;;;0.90;;
19225;SDS011;9747;48.536;12.522;2022-09-09T12:43:23;0.80;;;0.80;;
19225;SDS011;9747;48.536;12.522;2022-09-09T12:45:53;2.78;;;0.98;;
19225;SDS011;9747;48.536;12.522;2022-09-09T12:48:25;2.60;;;0.90;;
19225;SDS011;9747;48.536;12.522;2022-09-09T12:50:58;1.10;;;1.00;;
19225;SDS011;9747;48.536;12.522;2022-09-09T12:53:28;5.40;;;0.90;;
19225;SDS011;9747;48.536;12.522;2022-09-09T12:55:59;3.65;;;0.90;;
19225;SDS011;9747;48.536;12.522;2022-09-09T12:58:28;2.45;;;1.00;;
19225;SDS011;9747;48.536;12.522;2022-09-09T13:00:58;4.22;;;1.05;;
19225;SDS011;9747;48.536;12.522;2022-09-09T13:03:29;4.57;;;1.23;;
19225;SDS011;9747;48.536;12.522;2022-09-09T13:05:59;2.28;;;1.05;;
19225;SDS011;9747;48.536;12.522;2022-09-09T13:08:39;1.75;;;1.10;;
19225;SDS011;9747;48.536;12.522;2022-09-09T13:11:07;1.60;;;1.27;;
19225;SDS011;9747;48.536;12.522;2022-09-09T13:13:41;1.67;;;1.00;;
19225;SDS011;9747;48.536;12.522;2022-09-09T13:16:18;1.98;;;1.20;;
19225;SDS011;9747;48.536;12.522;2022-09-09T13:18:47;1.40;;;1.30;;
19225;SDS011;9747;48.536;12.522;2022-09-09T13:21:17;2.53;;;1.23;;
19225;SDS011;9747;48.536;12.522;2022-09-09T13:23:48;2.25;;;1.13;;
19225;SDS011;9747;48.536;12.522;2022-09-09T13:26:21;2.63;;;1.10;;
19225;SDS011;9747;48.536;12.522;2022-09-09T13:28:50;2.25;;;1.15;;
19225;SDS011;9747;48.536;12.522;2022-09-09T13:31:21;2.50;;;1.17;;
19225;SDS011;9747;48.536;12.522;2022-09-09T13:33:52;4.90;;;1.20;;
19225;SDS011;9747;48.536;12.522;2022-09-09T13:36:28;2.33;;;1.20;;
19225;SDS011;9747;48.536;12.522;2022-09-09T13:38:58;3.10;;;1.30;;
19225;SDS011;9747;48.536;12.522;2022-09-09T13:41:28;2.15;;;1.10;;
19225;SDS011;9747;48.536;12.522;2022-09-09T13:43:58;1.10;;;1.10;;
19225;SDS011;9747;48.536;12.522;2022-09-09T13:46:27;1.55;;;1.10;;
19225;SDS011;9747;48.536;12.522;2022-09-09T13:48:59;1.90;;;1.17;;
19225;SDS011;9747;48.536;12.522;2022-09-09T13:51:32;1.77;;;1.10;;
19225;SDS011;9747;48.536;12.522;2022-09-09T13:54:02;1.20;;;1.10;;
19225;SDS011;9747;48.536;12.522;2022-09-09T13:56:31;2.00;;;1.20;;
19225;SDS011;9747;48.536;12.522;2022-09-09T13:58:59;1.00;;;1.00;;
19225;SDS011;9747;48.536;12.522;2022-09-09T14:01:27;1.13;;;1.08;;
19225;SDS011;9747;48.536;12.522;2022-09-09T14:03:55;1.58;;;1.10;;
19225;SDS011;9747;48.536;12.522;2022-09-09T14:06:22;1.00;;;1.00;;
19225;SDS011;9747;48.536;12.522;2022-09-09T14:08:51;1.52;;;1.20;;
19225;SDS011;9747;48.536;12.522;2022-09-09T14:11:19;3.13;;;1.10;;
19225;SDS011;9747;48.536;12.522;2022-09-09T14:13:47;0.98;;;0.80;;
19225;SDS011;9747;48.536;12.522;2022-09-09T14:16:16;1.05;;;0.95;;
19225;SDS011;9747;48.536;12.522;2022-09-09T14:18:44;1.00;;;1.00;;
19225;SDS011;9747;48.536;12.522;2022-09-09T14:21:11;1.15;;;1.10;;
19225;SDS011;9747;48.536;12.522;2022-09-09T14:23:39;1.40;;;1.20;;
19225;SDS011;9747;48.536;12.522;2022-09-09T14:26:08;1.50;;;1.05;;
19225;SDS011;9747;48.536;12.522;2022-09-09T14:28:36;1.20;;;1.10;;
19225;SDS011;9747;48.536;12.522;2022-09-09T14:31:05;2.70;;;1.10;;
19225;SDS011;9747;48.536;12.522;2022-09-09T14:33:33;1.63;;;1.10;;
19225;SDS011;9747;48.536;12.522;2022-09-09T14:36:01;1.38;;;0.90;;
19225;SDS011;9747;48.536;12.522;2022-09-09T14:38:30;1.25;;;1.00;;
19225;SDS011;9747;48.536;12.522;2022-09-09T14:41:00;0.88;;;0.88;;
19225;SDS011;9747;48.536;12.522;2022-09-09T14:43:29;3.58;;;1.10;;
19225;SDS011;9747;48.536;12.522;2022-09-09T14:45:57;2.47;;;1.40;;
19225;SDS011;9747;48.536;12.522;2022-09-09T14:48:30;1.30;;;1.20;;
19225;SDS011;9747;48.536;12.522;2022-09-09T14:51:04;2.47;;;1.20;;
19225;SDS011;9747;48.536;12.522;2022-09-09T14:53:33;1.10;;;0.95;;
19225;SDS011;9747;48.536;12.522;2022-09-09T14:56:04;1.55;;;1.00;;
19225;SDS011;9747;48.536;12.522;2022-09-09T14:58:34;0.80;;;0.80;;
19225;SDS011;9747;48.536;12.522;2022-09-09T15:01:03;0.95;;;0.80;;
19225;SDS011;9747;48.536;12.522;2022-09-09T15:03:32;1.95;;;0.90;;
19225;SDS011;9747;48.536;12.522;2022-09-09T15:06:04;2.47;;;0.93;;
19225;SDS011;9747;48.536;12.522;2022-09-09T15:08:33;0.70;;;0.70;;
19225;SDS011;9747;48.536;12.522;2022-09-09T15:11:01;0.80;;;0.80;;
19225;SDS011;9747;48.536;12.522;2022-09-09T15:13:29;0.80;;;0.80;;
19225;SDS011;9747;48.536;12.522;2022-09-09T15:16:04;1.08;;;0.93;;
19225;SDS011;9747;48.536;12.522;2022-09-09T15:18:32;3.35;;;0.90;;
19225;SDS011;9747;48.536;12.522;2022-09-09T15:21:01;1.23;;;0.90;;
19225;SDS011;9747;48.536;12.522;2022-09-09T15:23:30;3.95;;;0.98;;
19225;SDS011;9747;48.536;12.522;2022-09-09T15:25:58;3.03;;;1.13;;